Flight Track Log - Related Links

Times and Time Zones

All times are in EDT time to prevent confusion due to time zone crossing. See the CTL14 flight status page for this flight to view local times or setup timezone preferences in your user account.

Time Position Orientation Groundspeed Altitude Reporting Facility
EDT Latitude Longitude Course Direction KTS MPH feet Rate Location/Type
Wed 09:13:41 PM 39.2833 -85.9000 360° North 128 147 1,300  Level Indianapolis TRACON
Wed 09:13:59 PM 39.3000 -85.9000 360° North 122 140 1,700 955 Climbing Indianapolis TRACON
Wed 09:15:09 PM 39.3311 -85.9150 340° North 123 142 2,700 818 Climbing Indianapolis Center
Wed 09:16:11 PM 39.3703 -85.9217 353° North 131 151 3,500 634 Climbing Indianapolis Center
Wed 09:17:12 PM 39.3919 -85.9675 301° West 144 166 4,000 244 Climbing Indianapolis Center
Wed 09:18:14 PM 39.4089 -86.0217 292° West 156 180 4,000  Level Indianapolis Center
Wed 09:19:15 PM 39.4300 -86.0783 296° West 169 194 4,000  Level Indianapolis Center
Wed 09:20:17 PM 39.4528 -86.1347 298° West 175 201 4,000  Level Indianapolis Center
Wed 09:21:19 PM 39.4794 -86.2031 297° West 177 204 4,000  Level Indianapolis Center
Wed 09:22:20 PM 39.5000 -86.2586 296° West 174 200 4,000 49 Level Indianapolis Center
Wed 09:23:22 PM 39.5219 -86.3156 297° West 175 201 4,100  Climbing Indianapolis Center
Wed 09:24:23 PM 39.5389 -86.3756 290° West 176 203 4,000 -49 Descending Indianapolis Center
Wed 09:25:25 PM 39.5581 -86.4350 293° West 178 205 4,000  Level Indianapolis Center
Wed 09:26:26 PM 39.5808 -86.4928 297° West 179 206 4,000  Level Indianapolis Center
Wed 09:27:28 PM 39.6036 -86.5492 298° West 178 205 4,000  Level Indianapolis Center
Wed 09:28:29 PM 39.6236 -86.6075 294° West 177 204 4,000  Level Indianapolis Center
Wed 09:29:31 PM 39.6456 -86.6647 296° West 177 204 4,000  Level Indianapolis Center
Wed 09:30:33 PM 39.6725 -86.7319 298° West 176 203 4,000 -49 Level Indianapolis Center
Wed 09:31:34 PM 39.6939 -86.7886 296° West 175 201 3,900  Descending Indianapolis Center
Wed 09:32:36 PM 39.7169 -86.8458 298° West 177 204 4,000 98 Climbing Indianapolis Center
Wed 09:33:37 PM 39.7369 -86.9042 294° West 177 204 4,100  Climbing Indianapolis Center
Wed 09:34:39 PM 39.7617 -86.9583 301° West 176 203 4,000 -49 Descending Indianapolis Center
Wed 09:35:40 PM 39.7867 -87.0133 301° West 177 204 4,000  Level Indianapolis Center
Wed 09:36:42 PM 39.8078 -87.0714 295° West 178 205 4,000  Level Indianapolis Center
Wed 09:37:44 PM 39.8294 -87.1283 296° West 177 204 4,000  Level Indianapolis Center
Wed 09:38:45 PM 39.8564 -87.1972 297° West 177 204 4,000  Level Indianapolis Center
Wed 09:39:47 PM 39.8775 -87.2556 295° West 178 205 4,000  Level Indianapolis Center
Wed 09:40:48 PM 39.8986 -87.3133 295° West 178 205 4,000  Level Indianapolis Center
Wed 09:41:50 PM 39.9203 -87.3714 296° West 178 205 4,000  Level Indianapolis Center
Wed 09:42:51 PM 39.9394 -87.4297 293° West 177 204 4,000  Level Indianapolis Center
Wed 09:43:52 PM 39.9592 -87.4889 294° West 178 205 4,000  Level Indianapolis Center
Wed 09:44:54 PM 39.9794 -87.5467 295° West 177 204 4,000  Level Indianapolis Center
Wed 09:45:55 PM 39.9994 -87.6061 294° West 178 205 4,000  Level Indianapolis Center
Wed 09:46:57 PM 40.0231 -87.6733 295° West 178 205 4,000  Level Indianapolis Center
Wed 09:48:18 PM 40.0511 -87.7431 298° West 209 241 4,000  Level Chicago Center
Wed 09:49:20 PM 40.0786 -87.8122 297° West 180 207 4,000  Level Chicago Center
Wed 09:50:21 PM 40.0994 -87.8717 295° West 182 209 4,000  Level Chicago Center
Wed 09:51:23 PM 40.1219 -87.9303 297° West 181 208 4,000  Level Chicago Center
Wed 09:52:25 PM 40.1431 -87.9900 295° West 181 208 4,000  Level Chicago Center
Wed 09:53:27 PM 40.1658 -88.0475 297° West 180 207 4,000  Level Chicago Center
Wed 09:54:29 PM 40.1919 -88.1044 301° West 180 207 4,000  Level Chicago Center
Wed 09:55:30 PM 40.2142 -88.1747 293° West 177 204 4,000 -49 Level Chicago Center
Wed 09:56:32 PM 40.2361 -88.2322 297° West 177 204 3,900  Descending Chicago Center
Wed 09:57:34 PM 40.2572 -88.2944 294° West 182 209 4,000 49 Climbing Chicago Center
Wed 09:58:35 PM 40.2775 -88.3536 294° West 180 207 4,000  Level Chicago Center
Wed 09:59:37 PM 40.2997 -88.4122 296° West 180 207 4,000  Level Chicago Center
Wed 10:00:39 PM 40.3208 -88.4717 295° West 181 208 4,000  Level Chicago Center
Wed 10:01:40 PM 40.3428 -88.5328 295° West 181 208 4,000 -49 Level Chicago Center
Wed 10:02:42 PM 40.3639 -88.5922 295° West 181 208 3,900 -339 Descending Chicago Center
Wed 10:03:44 PM 40.3897 -88.6672 294° West 187 215 3,300 -537 Descending Chicago Center
Wed 10:04:45 PM 40.4147 -88.7314 297° West 195 224 2,800 -537 Descending Chicago Center
Wed 10:05:47 PM 40.4372 -88.7933 296° West 192 221 2,200 -537 Descending Chicago Center
Wed 10:06:48 PM 40.4592 -88.8514 296° West 186 214 1,700 -488 Descending Chicago Center
Wed 10:07:50 PM 40.4733 -88.8986 292° West 158 182 1,200 -484 Descending Chicago Center
Wed 10:09:00 PM 40.4667 -88.9000 303° West  Level FlightAware Approximate
Wed 10:16:00 PM 40.4771 -88.9159 303° West  Level Estimated
Wed 10:17:00 PM 40.4771 -88.9159 303° West  Level Estimated
Wed 10:18:00 PM 40.4771 -88.9159 303° West  Level Estimated

Login

Don't have an account? Register now (free) for customized features, flight alerts, and more!